Terminal Aerodrome Forecast
Issued by NWS

Home | Current Version | Previous Version | Graphics & Text | Print | Product List | Glossary On
Versions: 1 2 3 4 5 6 7 8 9 10 11 12 13 14 15 16 17
516
FTUS43 KMPX 201120
TAFAXN
TAF
KAXN 201120Z 2012/2112 22007KT P6SM SCT150
     FM201400 33010KT P6SM BKN120
     FM210000 31004KT P6SM SKC=

USA.gov is the U.S. government's official web portal to all federal, state and local government web resources and services.